Terminal Aerodrome Forecast
Issued by NWS

Home | Current Version | Previous Version | Text Only | Print | Product List | Glossary On
Versions: 1 2 3 4 5 6 7 8 9 10 11 12 13 14 15 16
122
FTUS43 KBIS 201730
TAFMOT
TAF
KMOT 201730Z 2018/2118 24013KT P6SM SCT035 SCT050 BKN150
      TEMPO 2018/2022 BKN035 OVC050
     FM210000 25007KT P6SM SCT080 SCT150
     FM211300 25008KT P6SM FEW090=

USA.gov is the U.S. government's official web portal to all federal, state and local government web resources and services.